Time;durP1;ratioP1;P1;durP2;ratioP2;P2;SDS_P1;SDS_P2;PMS_P1;PMS_P2;Temp;Humidity;BMP_temperature;BMP_pressure;BME280_temperature;BME280_humidity;BME280_pressure;Samples;Min_cycle;Max_cycle;Signal;HPM_P1;HPM_P2
2022/09/09 00:01:55;;;;;;;18.33;13.80;;;;;;;;;;4993534;28;20019;-65
2022/09/09 00:04:29;;;;;;;19.55;13.60;;;;;;;;;;4993511;28;20453;-64
2022/09/09 00:07:14;;;;;;;16.77;13.38;;;;;;;;;;4993122;28;20082;-64
2022/09/09 00:09:41;;;;;;;19.73;14.30;;;;;;;;;;5008555;28;20062;-63
2022/09/09 00:12:15;;;;;;;17.77;14.20;;;;;;;;;;4993026;28;20031;-64
2022/09/09 00:14:44;;;;;;;19.48;14.85;;;;;;;;;;4992998;28;20049;-64
2022/09/09 00:17:15;;;;;;;20.50;14.20;;;;;;;;;;4992845;28;20018;-64
2022/09/09 00:20:02;;;;;;;17.55;13.80;;;;;;;;;;4993335;28;20398;-65
2022/09/09 00:22:31;;;;;;;18.83;14.05;;;;;;;;;;4993195;28;20058;-62
2022/09/09 00:25:04;;;;;;;16.23;14.15;;;;;;;;;;4993177;28;20029;-63
2022/09/09 00:27:40;;;;;;;17.23;13.60;;;;;;;;;;4992865;28;20487;-62
2022/09/09 00:30:13;;;;;;;20.00;13.70;;;;;;;;;;4993289;28;20446;-64
2022/09/09 00:32:39;;;;;;;16.45;14.00;;;;;;;;;;4992940;28;20027;-62
2022/09/09 00:35:11;;;;;;;17.30;14.57;;;;;;;;;;4993083;28;20040;-65
2022/09/09 00:37:38;;;;;;;17.38;15.48;;;;;;;;;;4992838;28;20029;-64
2022/09/09 00:40:09;;;;;;;18.45;16.10;;;;;;;;;;5008081;28;20114;-65
2022/09/09 00:42:42;;;;;;;17.70;15.80;;;;;;;;;;4993068;28;20030;-64
2022/09/09 00:45:14;;;;;;;18.67;15.73;;;;;;;;;;5009167;28;20145;-63
2022/09/09 00:47:42;;;;;;;17.90;15.55;;;;;;;;;;4996437;28;20067;-64
2022/09/09 00:50:29;;;;;;;18.10;15.27;;;;;;;;;;4996997;28;20033;-64
2022/09/09 00:52:58;;;;;;;20.60;15.52;;;;;;;;;;4997002;28;20487;-64
2022/09/09 00:55:27;;;;;;;18.60;15.25;;;;;;;;;;4996634;28;20035;-65
2022/09/09 00:57:53;;;;;;;18.95;15.15;;;;;;;;;;4996316;28;20084;-64
2022/09/09 01:00:24;;;;;;;21.20;15.15;;;;;;;;;;4996805;28;20033;-65
2022/09/09 01:02:57;;;;;;;19.73;15.40;;;;;;;;;;4996551;28;20089;-63
2022/09/09 01:05:31;;;;;;;18.75;14.60;;;;;;;;;;4996538;28;20022;-64
2022/09/09 01:07:58;;;;;;;18.35;14.18;;;;;;;;;;4996079;28;20486;-63
2022/09/09 01:10:41;;;;;;;16.27;13.05;;;;;;;;;;5011638;28;20097;-63
2022/09/09 01:13:13;;;;;;;18.00;13.70;;;;;;;;;;4996515;28;20490;-64
2022/09/09 01:15:39;;;;;;;16.73;13.50;;;;;;;;;;4996381;28;20030;-63
2022/09/09 01:18:11;;;;;;;18.92;13.57;;;;;;;;;;4995969;28;20027;-63
2022/09/09 01:20:47;;;;;;;18.63;13.43;;;;;;;;;;4996298;28;20076;-63
2022/09/09 01:23:31;;;;;;;16.60;13.63;;;;;;;;;;4996252;28;20081;-64
2022/09/09 01:26:03;;;;;;;16.20;14.02;;;;;;;;;;4996066;28;20320;-63
2022/09/09 01:28:30;;;;;;;16.77;14.05;;;;;;;;;;4995896;28;20107;-64
2022/09/09 01:30:57;;;;;;;16.80;13.65;;;;;;;;;;4996177;28;20487;-63
2022/09/09 01:33:23;;;;;;;17.85;13.43;;;;;;;;;;4996172;28;20033;-63
2022/09/09 01:35:51;;;;;;;16.88;13.25;;;;;;;;;;4995879;28;20023;-63
2022/09/09 01:38:18;;;;;;;16.50;13.32;;;;;;;;;;4995871;28;20018;-64
2022/09/09 01:40:44;;;;;;;16.60;13.15;;;;;;;;;;4996046;28;20034;-63
2022/09/09 01:43:10;;;;;;;15.43;12.98;;;;;;;;;;4996082;28;20022;-63
2022/09/09 01:45:37;;;;;;;16.10;12.82;;;;;;;;;;4995228;28;20475;-64
2022/09/09 01:48:03;;;;;;;18.17;13.30;;;;;;;;;;4995596;28;20112;-63
2022/09/09 01:50:29;;;;;;;16.70;13.23;;;;;;;;;;4996032;28;20031;-64
2022/09/09 01:52:58;;;;;;;17.45;13.77;;;;;;;;;;4995856;28;20026;-64
2022/09/09 01:55:45;;;;;;;16.85;13.88;;;;;;;;;;4995793;28;20443;-63
2022/09/09 01:58:23;;;;;;;18.15;13.68;;;;;;;;;;4994582;28;20031;-64
2022/09/09 02:00:58;;;;;;;18.23;13.98;;;;;;;;;;4995638;28;20029;-64
2022/09/09 02:03:27;;;;;;;19.38;13.88;;;;;;;;;;4995709;28;20157;-64
2022/09/09 02:05:53;;;;;;;;;;;;;;;;;;4995929;28;20029;-63
2022/09/09 02:08:22;;;;;;;16.67;13.68;;;;;;;;;;4995055;28;20286;-66
2022/09/09 02:10:55;;;;;;;17.73;13.55;;;;;;;;;;4995650;28;20124;-63
2022/09/09 02:13:22;;;;;;;16.60;13.43;;;;;;;;;;4995557;28;20039;-65
2022/09/09 02:16:00;;;;;;;17.35;14.00;;;;;;;;;;4995199;28;20113;-64
2022/09/09 02:18:29;;;;;;;16.60;14.40;;;;;;;;;;4994985;28;20495;-64
2022/09/09 02:20:57;;;;;;;16.20;13.75;;;;;;;;;;4995169;28;20022;-63
2022/09/09 02:23:23;;;;;;;17.98;13.75;;;;;;;;;;4995286;28;20033;-64
2022/09/09 02:25:51;;;;;;;17.80;14.90;;;;;;;;;;4995154;28;20384;-63
2022/09/09 02:28:18;;;;;;;17.45;14.70;;;;;;;;;;4995123;28;20033;-64
2022/09/09 02:30:46;;;;;;;18.38;15.20;;;;;;;;;;4995169;28;20495;-63
2022/09/09 02:33:13;;;;;;;18.00;15.05;;;;;;;;;;4994894;28;20121;-63
2022/09/09 02:35:40;;;;;;;18.65;15.57;;;;;;;;;;4995004;28;20505;-65
2022/09/09 02:38:08;;;;;;;17.52;15.05;;;;;;;;;;4994841;28;20033;-63
2022/09/09 02:40:34;;;;;;;20.10;15.45;;;;;;;;;;4995184;28;20035;-64
2022/09/09 02:43:00;;;;;;;17.70;15.63;;;;;;;;;;4994661;28;20033;-64
2022/09/09 02:45:29;;;;;;;19.02;15.23;;;;;;;;;;4996487;28;20034;-64
2022/09/09 02:47:58;;;;;;;17.27;14.68;;;;;;;;;;4994999;28;20027;-63
2022/09/09 02:50:33;;;;;;;17.70;14.32;;;;;;;;;;4994739;28;20030;-63
2022/09/09 02:53:02;;;;;;;16.30;13.88;;;;;;;;;;4994415;28;20034;-63
2022/09/09 02:55:34;;;;;;;18.33;15.40;;;;;;;;;;4994711;28;20034;-63
2022/09/09 02:58:00;;;;;;;17.58;14.07;;;;;;;;;;4993996;28;20113;-64
2022/09/09 03:00:27;;;;;;;19.33;14.82;;;;;;;;;;4994157;28;20018;-63
2022/09/09 03:02:57;;;;;;;17.60;14.20;;;;;;;;;;5000365;28;20094;-64
2022/09/09 03:05:23;;;;;;;19.00;14.95;;;;;;;;;;5000466;28;20105;-66
2022/09/09 03:07:50;;;;;;;17.58;14.45;;;;;;;;;;4998517;28;20026;-64
2022/09/09 03:10:16;;;;;;;19.20;14.32;;;;;;;;;;5000112;28;20390;-65
2022/09/09 03:12:42;;;;;;;18.55;14.40;;;;;;;;;;4996269;28;20029;-66
2022/09/09 03:15:09;;;;;;;18.38;14.73;;;;;;;;;;4994892;28;20076;-64
2022/09/09 03:17:35;;;;;;;18.83;15.55;;;;;;;;;;4994219;28;20018;-64
2022/09/09 03:20:02;;;;;;;18.60;15.18;;;;;;;;;;4994356;28;20027;-63
2022/09/09 03:22:28;;;;;;;16.92;14.90;;;;;;;;;;4994485;28;20152;-65
2022/09/09 03:24:54;;;;;;;17.63;14.88;;;;;;;;;;4994245;28;20113;-64
2022/09/09 03:27:20;;;;;;;20.58;15.90;;;;;;;;;;4993816;28;20022;-64
2022/09/09 03:29:48;;;;;;;19.85;16.73;;;;;;;;;;4993945;28;20033;-64
2022/09/09 03:32:17;;;;;;;22.02;16.92;;;;;;;;;;4994022;28;20057;-65
2022/09/09 03:34:43;;;;;;;19.27;17.17;;;;;;;;;;4993955;28;20510;-64
2022/09/09 03:37:09;;;;;;;18.63;16.38;;;;;;;;;;4993555;28;20490;-63
2022/09/09 03:39:35;;;;;;;19.17;16.52;;;;;;;;;;4993695;28;20035;-65
2022/09/09 03:42:05;;;;;;;20.77;16.25;;;;;;;;;;4993994;28;20026;-65
2022/09/09 03:44:31;;;;;;;22.17;16.75;;;;;;;;;;4993574;28;20046;-65
2022/09/09 03:47:00;;;;;;;21.13;16.98;;;;;;;;;;4993225;28;20058;-64
2022/09/09 03:49:28;;;;;;;18.88;16.60;;;;;;;;;;4993019;28;20030;-64
2022/09/09 03:51:54;;;;;;;19.40;16.92;;;;;;;;;;4993617;28;20444;-65
2022/09/09 03:54:20;;;;;;;22.30;18.33;;;;;;;;;;4993773;28;20463;-64
2022/09/09 03:56:46;;;;;;;22.95;18.15;;;;;;;;;;4993386;28;20040;-65
2022/09/09 03:59:14;;;;;;;20.77;17.90;;;;;;;;;;4993222;28;20405;-65
2022/09/09 04:01:40;;;;;;;21.88;17.88;;;;;;;;;;5008743;28;20483;-63
2022/09/09 04:04:06;;;;;;;21.33;18.05;;;;;;;;;;4993475;28;20125;-63
2022/09/09 04:06:32;;;;;;;19.67;17.30;;;;;;;;;;5008558;28;20479;-66
2022/09/09 04:08:58;;;;;;;19.88;17.23;;;;;;;;;;4993110;28;20041;-63
2022/09/09 04:11:24;;;;;;;21.45;17.30;;;;;;;;;;4993554;28;20475;-64
2022/09/09 04:13:50;;;;;;;21.02;16.42;;;;;;;;;;4993173;28;20502;-64
2022/09/09 04:16:16;;;;;;;19.83;16.45;;;;;;;;;;4993208;28;20121;-64
2022/09/09 04:18:42;;;;;;;21.63;16.08;;;;;;;;;;5008206;28;20027;-64
2022/09/09 04:21:10;;;;;;;19.83;15.85;;;;;;;;;;4992846;28;20022;-65
2022/09/09 04:23:36;;;;;;;22.23;15.65;;;;;;;;;;4993202;28;20072;-65
2022/09/09 04:26:03;;;;;;;20.25;15.20;;;;;;;;;;4993047;28;20030;-64
2022/09/09 04:28:30;;;;;;;21.35;15.35;;;;;;;;;;4993134;28;20027;-64
2022/09/09 04:30:59;;;;;;;22.30;15.13;;;;;;;;;;4993254;28;20030;-63
2022/09/09 04:33:26;;;;;;;18.38;14.85;;;;;;;;;;4992956;28;20583;-63
2022/09/09 04:35:54;;;;;;;17.77;14.68;;;;;;;;;;4992492;28;20030;-63
2022/09/09 04:38:22;;;;;;;19.70;14.25;;;;;;;;;;4992920;28;20542;-63
2022/09/09 04:40:49;;;;;;;18.17;13.85;;;;;;;;;;4993319;28;20019;-64
2022/09/09 04:43:15;;;;;;;20.98;14.50;;;;;;;;;;4993147;28;20031;-63
2022/09/09 04:45:41;;;;;;;25.52;16.38;;;;;;;;;;4993285;28;20113;-63
2022/09/09 04:48:07;;;;;;;18.05;13.45;;;;;;;;;;4992723;28;20026;-62
2022/09/09 04:50:33;;;;;;;22.42;15.05;;;;;;;;;;4992694;28;20219;-63
2022/09/09 04:53:04;;;;;;;19.73;14.02;;;;;;;;;;5007846;28;20458;-64
2022/09/09 04:55:31;;;;;;;21.52;13.60;;;;;;;;;;5007738;28;20034;-63
2022/09/09 04:57:57;;;;;;;19.17;13.85;;;;;;;;;;5007394;28;20069;-63
2022/09/09 05:00:23;;;;;;;19.20;13.02;;;;;;;;;;4993075;28;20027;-63
2022/09/09 05:02:49;;;;;;;19.17;13.73;;;;;;;;;;4993131;28;20050;-64
2022/09/09 05:05:16;;;;;;;19.75;14.20;;;;;;;;;;5012387;28;20144;-63
2022/09/09 05:07:43;;;;;;;18.70;12.45;;;;;;;;;;5023183;28;20018;-63
2022/09/09 05:10:09;;;;;;;18.00;12.45;;;;;;;;;;5021107;28;20049;-63
2022/09/09 05:12:35;;;;;;;18.63;12.25;;;;;;;;;;5031919;28;20025;-63
2022/09/09 05:15:01;;;;;;;18.98;11.95;;;;;;;;;;5016476;28;20037;-63
2022/09/09 05:17:28;;;;;;;18.00;12.50;;;;;;;;;;5011510;28;20651;-63
2022/09/09 05:19:55;;;;;;;16.80;11.77;;;;;;;;;;5011878;28;20029;-64
2022/09/09 05:22:22;;;;;;;17.98;11.68;;;;;;;;;;5019719;28;20014;-64
2022/09/09 05:24:53;;;;;;;17.97;12.10;;;;;;;;;;5035443;28;20025;-65
2022/09/09 05:27:22;;;;;;;17.85;12.13;;;;;;;;;;5031477;28;20028;-66
2022/09/09 05:29:48;;;;;;;19.38;12.18;;;;;;;;;;5031730;28;20095;-64
2022/09/09 05:32:16;;;;;;;19.13;11.50;;;;;;;;;;5032840;28;20032;-63
2022/09/09 05:34:42;;;;;;;17.38;12.02;;;;;;;;;;5036013;28;20397;-64
2022/09/09 05:37:08;;;;;;;18.70;11.88;;;;;;;;;;5036066;28;20026;-64
2022/09/09 05:39:36;;;;;;;21.15;12.95;;;;;;;;;;5029228;28;20026;-63
2022/09/09 05:42:03;;;;;;;17.40;12.20;;;;;;;;;;5016108;28;20486;-63
2022/09/09 05:44:29;;;;;;;17.77;11.73;;;;;;;;;;5016239;28;20406;-62
2022/09/09 05:46:57;;;;;;;20.65;12.20;;;;;;;;;;5015478;28;20030;-63
2022/09/09 05:49:23;;;;;;;19.00;11.77;;;;;;;;;;5015396;28;20051;-61
2022/09/09 05:51:50;;;;;;;19.38;11.75;;;;;;;;;;5015518;28;20029;-64
2022/09/09 05:54:16;;;;;;;18.05;11.95;;;;;;;;;;5015783;28;20030;-64
2022/09/09 05:56:42;;;;;;;18.48;11.65;;;;;;;;;;5016209;28;20034;-64
2022/09/09 05:59:09;;;;;;;18.00;11.57;;;;;;;;;;5015406;28;20506;-65
2022/09/09 06:01:37;;;;;;;19.73;11.30;;;;;;;;;;5014875;28;20022;-65
2022/09/09 06:04:03;;;;;;;18.30;11.23;;;;;;;;;;5014759;28;20431;-64
2022/09/09 06:06:36;;;;;;;17.73;11.93;;;;;;;;;;5023673;28;20033;-64
2022/09/09 06:09:06;;;;;;;17.98;11.02;;;;;;;;;;5033121;28;20025;-65
2022/09/09 06:11:32;;;;;;;19.60;11.52;;;;;;;;;;5034546;28;20072;-64
2022/09/09 06:13:59;;;;;;;21.27;11.52;;;;;;;;;;5034253;28;20021;-65
2022/09/09 06:16:26;;;;;;;16.33;10.38;;;;;;;;;;5033708;28;20048;-65
2022/09/09 06:18:54;;;;;;;22.07;11.37;;;;;;;;;;5034083;28;20018;-62
2022/09/09 06:21:30;;;;;;;19.05;10.52;;;;;;;;;;5034502;28;20334;-64
2022/09/09 06:23:57;;;;;;;18.70;11.10;;;;;;;;;;5034137;28;20539;-62
2022/09/09 06:26:25;;;;;;;18.52;10.40;;;;;;;;;;5032798;28;20121;-64
2022/09/09 06:28:52;;;;;;;21.58;10.55;;;;;;;;;;5032704;28;20639;-64
2022/09/09 06:31:22;;;;;;;18.23;10.32;;;;;;;;;;5034104;28;20037;-64
2022/09/09 06:33:49;;;;;;;18.35;10.35;;;;;;;;;;5034115;28;20017;-64
2022/09/09 06:36:16;;;;;;;17.45;10.40;;;;;;;;;;5033869;28;20035;-64
2022/09/09 06:38:43;;;;;;;17.42;10.32;;;;;;;;;;5033734;28;20018;-64
2022/09/09 06:41:09;;;;;;;16.88;9.95;;;;;;;;;;5033576;28;20044;-64
2022/09/09 06:43:36;;;;;;;19.05;10.55;;;;;;;;;;5033164;28;20447;-63
2022/09/09 06:46:02;;;;;;;17.02;9.85;;;;;;;;;;5032405;28;20028;-64
2022/09/09 06:48:28;;;;;;;17.65;11.00;;;;;;;;;;5033397;28;20100;-65
2022/09/09 06:51:23;;;;;;;17.77;10.45;;;;;;;;;;5033867;28;20057;-63
2022/09/09 06:53:53;;;;;;;17.73;10.18;;;;;;;;;;5033000;28;20072;-63
2022/09/09 06:56:22;;;;;;;18.85;10.18;;;;;;;;;;5033571;28;20071;-64
2022/09/09 06:58:49;;;;;;;16.90;9.50;;;;;;;;;;5032074;28;20030;-64
2022/09/09 07:01:16;;;;;;;16.45;9.60;;;;;;;;;;5033240;28;20474;-64
2022/09/09 07:03:46;;;;;;;18.25;10.43;;;;;;;;;;5033528;28;20036;-66
2022/09/09 07:06:17;;;;;;;17.80;10.20;;;;;;;;;;5033489;28;20445;-63
2022/09/09 07:08:43;;;;;;;15.82;9.80;;;;;;;;;;5032958;28;20402;-62
2022/09/09 07:11:09;;;;;;;18.13;10.00;;;;;;;;;;5033404;28;20508;-64
2022/09/09 07:13:35;;;;;;;18.02;10.68;;;;;;;;;;5033441;28;20025;-63
2022/09/09 07:16:08;;;;;;;18.48;9.90;;;;;;;;;;5033079;28;20032;-64
2022/09/09 07:18:35;;;;;;;18.17;10.27;;;;;;;;;;5032433;28;20027;-63
2022/09/09 07:21:01;;;;;;;17.48;10.48;;;;;;;;;;5032297;28;20482;-65
2022/09/09 07:23:28;;;;;;;18.33;10.23;;;;;;;;;;5033148;28;20433;-64
2022/09/09 07:25:54;;;;;;;18.33;10.27;;;;;;;;;;5033974;28;20497;-64
2022/09/09 07:28:21;;;;;;;17.80;10.43;;;;;;;;;;5032252;28;20442;-64
2022/09/09 07:30:57;;;;;;;20.10;10.40;;;;;;;;;;5033354;28;20049;-64
2022/09/09 07:33:24;;;;;;;19.95;10.38;;;;;;;;;;5032924;28;20063;-63
2022/09/09 07:35:50;;;;;;;19.90;10.10;;;;;;;;;;5032614;28;20033;-63
2022/09/09 07:38:17;;;;;;;17.80;9.48;;;;;;;;;;5032576;28;20018;-64
2022/09/09 07:40:43;;;;;;;18.25;10.48;;;;;;;;;;5032737;28;20410;-65
2022/09/09 07:43:09;;;;;;;17.83;10.00;;;;;;;;;;5032654;28;20391;-65
2022/09/09 07:45:35;;;;;;;21.00;10.20;;;;;;;;;;5032734;28;20021;-65
2022/09/09 07:48:02;;;;;;;17.25;9.55;;;;;;;;;;5032586;28;20359;-64
2022/09/09 07:50:28;;;;;;;18.30;10.10;;;;;;;;;;5029343;28;20044;-60
2022/09/09 07:52:54;;;;;;;18.05;10.32;;;;;;;;;;5023950;28;20042;-61
2022/09/09 07:55:21;;;;;;;16.30;9.40;;;;;;;;;;5021309;28;20029;-61
2022/09/09 07:57:47;;;;;;;19.42;9.13;;;;;;;;;;5017678;28;20034;-61
2022/09/09 08:00:14;;;;;;;17.88;9.20;;;;;;;;;;5012757;28;20359;-63
2022/09/09 08:02:41;;;;;;;17.52;9.18;;;;;;;;;;5011561;28;20029;-60
2022/09/09 08:05:07;;;;;;;17.30;9.77;;;;;;;;;;5012765;28;20087;-62
2022/09/09 08:07:33;;;;;;;17.00;9.07;;;;;;;;;;5019758;28;20025;-60
2022/09/09 08:09:59;;;;;;;17.10;9.50;;;;;;;;;;5031909;28;20030;-60
2022/09/09 08:12:25;;;;;;;19.88;9.35;;;;;;;;;;5032334;28;20056;-60
2022/09/09 08:14:51;;;;;;;16.55;9.32;;;;;;;;;;5032417;28;20056;-62
2022/09/09 08:17:18;;;;;;;17.58;8.70;;;;;;;;;;5032067;28;20116;-59
2022/09/09 08:19:44;;;;;;;16.50;8.65;;;;;;;;;;5031078;28;20036;-61
2022/09/09 08:22:10;;;;;;;17.70;8.70;;;;;;;;;;5032169;28;20025;-61
2022/09/09 08:24:36;;;;;;;19.83;9.00;;;;;;;;;;5032226;28;20055;-59
2022/09/09 08:27:02;;;;;;;18.15;8.70;;;;;;;;;;5032390;28;20022;-60
2022/09/09 08:29:28;;;;;;;20.30;8.93;;;;;;;;;;5031979;28;20033;-60
2022/09/09 08:31:57;;;;;;;18.23;8.77;;;;;;;;;;5031900;28;20029;-61
2022/09/09 08:34:24;;;;;;;16.63;8.57;;;;;;;;;;5032157;28;20025;-62
2022/09/09 08:36:50;;;;;;;17.45;8.32;;;;;;;;;;5031987;28;20091;-59
2022/09/09 08:39:17;;;;;;;16.98;8.77;;;;;;;;;;5030526;28;20029;-60
2022/09/09 08:41:51;;;;;;;17.20;8.35;;;;;;;;;;5032096;28;20029;-57
2022/09/09 08:44:36;;;;;;;16.27;8.43;;;;;;;;;;5031656;28;20342;-59
2022/09/09 08:47:14;;;;;;;20.77;10.07;;;;;;;;;;5031642;28;20049;-62
2022/09/09 08:49:46;;;;;;;15.82;8.20;;;;;;;;;;5032000;28;20041;-62
2022/09/09 08:52:18;;;;;;;20.30;9.15;;;;;;;;;;5031878;28;20041;-63
2022/09/09 08:54:45;;;;;;;17.33;9.13;;;;;;;;;;5032062;28;20124;-62
2022/09/09 08:57:15;;;;;;;18.33;9.60;;;;;;;;;;5031375;28;20033;-59
2022/09/09 08:59:41;;;;;;;18.10;9.35;;;;;;;;;;5031920;28;20022;-62
2022/09/09 09:02:19;;;;;;;17.83;10.07;;;;;;;;;;5030505;28;20025;-63
2022/09/09 09:04:51;;;;;;;19.42;9.98;;;;;;;;;;5032053;28;20021;-55
2022/09/09 09:07:23;;;;;;;17.02;9.48;;;;;;;;;;5034419;28;20033;-62
2022/09/09 09:09:52;;;;;;;18.75;10.02;;;;;;;;;;5035846;28;20041;-59
2022/09/09 09:12:20;;;;;;;18.48;10.15;;;;;;;;;;5036007;28;20021;-62
2022/09/09 09:14:47;;;;;;;18.65;10.00;;;;;;;;;;5035724;28;20060;-62
2022/09/09 09:17:15;;;;;;;17.48;9.27;;;;;;;;;;5035355;28;20147;-63
2022/09/09 09:19:42;;;;;;;16.07;8.63;;;;;;;;;;5034601;28;20044;-62
2022/09/09 09:22:16;;;;;;;18.38;9.43;;;;;;;;;;5031572;28;20029;-62
2022/09/09 09:24:48;;;;;;;18.52;9.55;;;;;;;;;;5029151;28;20116;-62
2022/09/09 09:27:16;;;;;;;15.55;8.00;;;;;;;;;;5018375;28;20172;-62
2022/09/09 09:29:44;;;;;;;16.83;9.18;;;;;;;;;;5029112;28;20119;-62
2022/09/09 09:32:14;;;;;;;19.52;9.32;;;;;;;;;;5024377;28;20022;-62
2022/09/09 09:34:40;;;;;;;16.42;9.25;;;;;;;;;;5023893;28;20032;-63
2022/09/09 09:37:14;;;;;;;19.88;9.35;;;;;;;;;;5022305;28;20104;-64
2022/09/09 09:39:40;;;;;;;17.38;9.23;;;;;;;;;;5024776;28;20029;-63
2022/09/09 09:42:14;;;;;;;18.33;9.30;;;;;;;;;;5032283;28;20030;-63
2022/09/09 09:44:41;;;;;;;15.88;9.35;;;;;;;;;;5035091;28;20135;-63
2022/09/09 09:47:17;;;;;;;17.02;9.00;;;;;;;;;;5034869;28;20100;-64
2022/09/09 09:49:58;;;;;;;16.90;9.50;;;;;;;;;;5034817;28;20030;-66
2022/09/09 09:52:25;;;;;;;19.92;9.63;;;;;;;;;;5033535;28;20553;-65
2022/09/09 09:54:52;;;;;;;17.27;9.90;;;;;;;;;;5035035;28;20026;-64
2022/09/09 09:57:19;;;;;;;17.08;10.00;;;;;;;;;;5033127;28;20080;-66
2022/09/09 09:59:46;;;;;;;18.10;9.57;;;;;;;;;;5034413;28;20032;-65
2022/09/09 10:02:25;;;;;;;17.98;9.70;;;;;;;;;;5035032;28;20059;-63
2022/09/09 10:05:13;;;;;;;19.50;9.75;;;;;;;;;;5036693;28;20060;-61
2022/09/09 10:07:39;;;;;;;17.23;9.53;;;;;;;;;;5034913;28;20029;-63
2022/09/09 10:10:06;;;;;;;16.00;9.32;;;;;;;;;;5035035;28;20084;-65
2022/09/09 10:12:55;;;;;;;18.40;10.30;;;;;;;;;;5034990;28;20104;-62
2022/09/09 10:15:27;;;;;;;18.88;9.77;;;;;;;;;;5029802;28;20415;-63
2022/09/09 10:18:02;;;;;;;15.55;9.82;;;;;;;;;;5033620;28;20557;-63
2022/09/09 10:20:51;;;;;;;17.90;9.48;;;;;;;;;;5034479;28;20021;-65
2022/09/09 10:23:30;;;;;;;17.13;9.20;;;;;;;;;;5031736;28;20033;-66
2022/09/09 10:26:11;;;;;;;16.05;9.70;;;;;;;;;;5034479;28;20021;-66
2022/09/09 10:28:58;;;;;;;16.13;9.70;;;;;;;;;;5034582;28;20521;-66
2022/09/09 10:31:24;;;;;;;17.17;9.68;;;;;;;;;;5032297;28;20041;-65
2022/09/09 10:33:51;;;;;;;17.42;10.68;;;;;;;;;;5034489;28;20026;-65
2022/09/09 10:36:21;;;;;;;17.17;10.27;;;;;;;;;;5034336;28;20026;-66
2022/09/09 10:38:48;;;;;;;18.70;10.15;;;;;;;;;;5034508;28;20033;-66
2022/09/09 10:41:23;;;;;;;16.10;10.40;;;;;;;;;;5034678;28;20022;-64
2022/09/09 10:43:49;;;;;;;21.50;10.35;;;;;;;;;;5033395;28;20079;-65
2022/09/09 10:46:24;;;;;;;17.63;10.45;;;;;;;;;;5034867;28;20033;-64
2022/09/09 10:48:50;;;;;;;16.35;10.38;;;;;;;;;;5033108;28;20026;-66
2022/09/09 10:51:23;;;;;;;16.88;11.18;;;;;;;;;;5034506;28;20037;-65
2022/09/09 10:53:59;;;;;;;16.20;10.57;;;;;;;;;;5034179;28;20030;-65
2022/09/09 10:56:26;;;;;;;17.23;10.52;;;;;;;;;;5033922;28;20037;-65
2022/09/09 10:58:54;;;;;;;17.33;10.80;;;;;;;;;;5034099;28;20045;-67
2022/09/09 11:01:25;;;;;;;21.55;11.27;;;;;;;;;;5034275;28;20029;-65
2022/09/09 11:04:01;;;;;;;18.65;11.02;;;;;;;;;;5034549;28;20025;-65
2022/09/09 11:06:30;;;;;;;17.85;10.88;;;;;;;;;;5034279;28;20500;-65
2022/09/09 11:08:58;;;;;;;18.30;10.77;;;;;;;;;;5034170;28;20558;-65
2022/09/09 11:11:27;;;;;;;16.77;11.65;;;;;;;;;;5032630;28;20034;-66
2022/09/09 11:13:54;;;;;;;17.33;11.00;;;;;;;;;;5026412;28;20033;-65
2022/09/09 11:16:23;;;;;;;18.80;10.32;;;;;;;;;;5025081;28;20025;-65
2022/09/09 11:18:49;;;;;;;17.13;10.95;;;;;;;;;;5023479;28;20075;-66
2022/09/09 11:21:27;;;;;;;17.20;11.30;;;;;;;;;;5026206;28;20029;-65
2022/09/09 11:23:56;;;;;;;16.88;11.18;;;;;;;;;;5024229;28;20029;-66
2022/09/09 11:26:29;;;;;;;17.55;11.27;;;;;;;;;;5022536;28;20029;-65
2022/09/09 11:28:58;;;;;;;16.33;11.25;;;;;;;;;;5023747;28;20025;-64
2022/09/09 11:31:41;;;;;;;16.48;10.13;;;;;;;;;;5027392;28;20049;-64
2022/09/09 11:34:19;;;;;;;18.98;10.32;;;;;;;;;;5023792;28;20034;-66
2022/09/09 11:36:49;;;;;;;16.60;10.30;;;;;;;;;;5020223;28;20044;-63
2022/09/09 11:39:18;;;;;;;20.10;10.32;;;;;;;;;;5022985;28;20673;-65
2022/09/09 11:41:44;;;;;;;17.80;10.23;;;;;;;;;;5025445;28;20040;-64
2022/09/09 11:44:17;;;;;;;19.10;10.68;;;;;;;;;;5033017;28;20029;-64
2022/09/09 11:46:44;;;;;;;18.10;10.38;;;;;;;;;;5032500;28;20049;-63
2022/09/09 11:49:27;;;;;;;16.67;9.98;;;;;;;;;;5033171;28;20033;-65
2022/09/09 11:51:54;;;;;;;19.90;10.50;;;;;;;;;;5032667;28;20398;-64
2022/09/09 11:54:29;;;;;;;16.23;9.93;;;;;;;;;;5031483;28;20624;-61
2022/09/09 11:56:56;;;;;;;17.15;9.93;;;;;;;;;;5031966;28;20390;-66
2022/09/09 11:59:27;;;;;;;17.13;9.50;;;;;;;;;;5032946;28;20108;-66
2022/09/09 12:01:56;;;;;;;16.80;9.52;;;;;;;;;;5032997;28;20099;-66
2022/09/09 12:04:22;;;;;;;16.17;10.00;;;;;;;;;;5033067;28;20406;-67
2022/09/09 12:07:06;;;;;;;17.42;10.88;;;;;;;;;;5032479;28;20029;-65
2022/09/09 12:09:52;;;;;;;16.90;10.32;;;;;;;;;;5032563;28;20632;-65
2022/09/09 12:12:23;;;;;;;16.63;10.15;;;;;;;;;;5032646;28;20053;-63
2022/09/09 12:14:57;;;;;;;19.17;10.27;;;;;;;;;;5032857;28;20108;-63
2022/09/09 12:17:24;;;;;;;18.05;10.25;;;;;;;;;;5032030;28;20148;-62
2022/09/09 12:20:10;;;;;;;18.17;10.47;;;;;;;;;;4672516;28;10000336;-61
2022/09/09 12:22:57;;;;;;;17.63;10.68;;;;;;;;;;5005318;28;20533;-65
2022/09/09 12:25:23;;;;;;;16.65;9.43;;;;;;;;;;5027454;28;20029;-65
2022/09/09 12:28:09;;;;;;;15.48;9.48;;;;;;;;;;5028090;28;20161;-63
2022/09/09 12:30:41;;;;;;;14.80;9.35;;;;;;;;;;5010295;28;20114;-65
2022/09/09 12:33:11;;;;;;;15.20;9.50;;;;;;;;;;5017963;28;20030;-66
2022/09/09 12:35:38;;;;;;;15.48;9.73;;;;;;;;;;5019333;28;20029;-64
2022/09/09 12:38:07;;;;;;;17.17;9.80;;;;;;;;;;5020521;28;20026;-65
2022/09/09 12:40:36;;;;;;;15.95;9.57;;;;;;;;;;5021602;28;20151;-65
2022/09/09 12:43:03;;;;;;;15.23;9.80;;;;;;;;;;5014688;28;20455;-65
2022/09/09 12:45:31;;;;;;;16.83;10.30;;;;;;;;;;5015336;28;20048;-60
2022/09/09 12:48:03;;;;;;;15.73;9.98;;;;;;;;;;5031528;28;20038;-65
2022/09/09 12:50:31;;;;;;;17.42;10.80;;;;;;;;;;5033102;28;20036;-63
2022/09/09 12:52:59;;;;;;;16.35;10.70;;;;;;;;;;5032652;28;20029;-65
2022/09/09 12:55:29;;;;;;;17.52;11.10;;;;;;;;;;5033106;28;20131;-65
2022/09/09 12:57:56;;;;;;;15.95;10.73;;;;;;;;;;5033005;28;20045;-59
2022/09/09 13:00:23;;;;;;;16.30;10.10;;;;;;;;;;5033913;28;20501;-60
2022/09/09 13:02:58;;;;;;;16.00;10.50;;;;;;;;;;5035345;28;20112;-61
2022/09/09 13:05:29;;;;;;;16.30;10.80;;;;;;;;;;5035155;28;20112;-60
2022/09/09 13:08:06;;;;;;;15.63;10.43;;;;;;;;;;5024298;28;20018;-61
2022/09/09 13:10:34;;;;;;;17.23;10.70;;;;;;;;;;5015459;28;20022;-61
2022/09/09 13:13:01;;;;;;;15.10;10.15;;;;;;;;;;5015459;28;20105;-60
2022/09/09 13:15:28;;;;;;;16.40;10.25;;;;;;;;;;5030521;28;20445;-60
2022/09/09 13:17:56;;;;;;;15.27;9.77;;;;;;;;;;4669119;28;10000359;-62
2022/09/09 13:20:23;;;;;;;16.17;10.07;;;;;;;;;;5032290;28;20033;-62
2022/09/09 13:22:50;;;;;;;15.60;10.45;;;;;;;;;;5025993;28;20452;-57
2022/09/09 13:25:27;;;;;;;17.00;9.88;;;;;;;;;;5025912;28;20061;-63
2022/09/09 13:27:53;;;;;;;15.80;11.00;;;;;;;;;;5029004;28;20026;-61
2022/09/09 13:30:24;;;;;;;30.25;25.73;;;;;;;;;;5031041;28;20167;-66
2022/09/09 13:33:07;;;;;;;33.38;30.27;;;;;;;;;;5032166;28;20037;-65
2022/09/09 13:35:34;;;;;;;35.08;32.28;;;;;;;;;;5028834;28;20542;-65
2022/09/09 13:38:08;;;;;;;31.52;28.90;;;;;;;;;;5021106;28;20028;-65
2022/09/09 13:40:34;;;;;;;28.83;26.17;;;;;;;;;;5021293;28;20009;-66
2022/09/09 13:43:02;;;;;;;27.38;24.83;;;;;;;;;;5019911;28;20033;-65
2022/09/09 13:45:28;;;;;;;27.25;24.80;;;;;;;;;;5020768;28;20021;-65
2022/09/09 13:47:55;;;;;;;22.55;20.27;;;;;;;;;;5015771;28;20025;-63
2022/09/09 13:50:21;;;;;;;22.75;20.42;;;;;;;;;;5018521;28;20122;-62
2022/09/09 13:52:51;;;;;;;22.67;20.13;;;;;;;;;;5015917;28;20033;-66
2022/09/09 13:55:17;;;;;;;21.77;19.58;;;;;;;;;;5018922;28;20045;-61
2022/09/09 13:57:56;;;;;;;19.92;17.83;;;;;;;;;;5022731;28;20025;-59
2022/09/09 14:00:24;;;;;;;19.85;17.75;;;;;;;;;;5030146;28;20105;-60
2022/09/09 14:02:50;;;;;;;20.67;18.52;;;;;;;;;;5031158;28;20549;-59
2022/09/09 14:05:16;;;;;;;20.42;18.33;;;;;;;;;;5029306;28;20567;-59
2022/09/09 14:07:43;;;;;;;20.17;16.13;;;;;;;;;;5022718;28;20022;-57
2022/09/09 14:10:09;;;;;;;16.38;14.15;;;;;;;;;;5028615;28;20528;-61
2022/09/09 14:12:36;;;;;;;17.88;14.00;;;;;;;;;;5023915;28;20053;-58
2022/09/09 14:15:02;;;;;;;17.23;13.73;;;;;;;;;;5030885;28;20036;-60
2022/09/09 14:17:30;;;;;;;16.48;11.60;;;;;;;;;;5024553;28;20028;-61
2022/09/09 14:19:56;;;;;;;16.80;11.18;;;;;;;;;;5021473;28;20787;-62
2022/09/09 14:22:22;;;;;;;15.18;8.70;;;;;;;;;;5023750;28;20040;-62
2022/09/09 14:24:49;;;;;;;19.10;13.80;;;;;;;;;;5027344;28;20025;-60
2022/09/09 14:27:15;;;;;;;42.78;39.28;;;;;;;;;;5019956;28;20410;-61
2022/09/09 14:29:43;;;;;;;50.42;46.88;;;;;;;;;;5022168;28;20090;-60
2022/09/09 14:32:09;;;;;;;49.43;45.90;;;;;;;;;;5030546;28;20034;-59
2022/09/09 14:34:35;;;;;;;44.80;41.70;;;;;;;;;;5030755;28;20053;-58